createdAt,value
2022-09-02T00:00:17.804Z,96558.00
2022-09-02T00:04:24.673Z,96559.00
2022-09-02T00:08:27.970Z,96550.00
2022-09-02T00:12:31.189Z,96550.00
2022-09-02T00:16:34.820Z,96552.00
2022-09-02T00:20:40.278Z,96543.00
2022-09-02T00:24:43.373Z,96550.00
2022-09-02T00:29:20.311Z,96547.00
2022-09-02T00:33:23.668Z,96549.00
2022-09-02T00:37:28.686Z,96540.00
2022-09-02T00:41:32.627Z,96539.00
2022-09-02T00:45:36.243Z,96539.00
2022-09-02T00:49:54.022Z,96537.00
2022-09-02T00:53:59.423Z,96531.00
2022-09-02T00:58:35.722Z,96529.00
2022-09-02T01:02:41.400Z,96526.00
2022-09-02T01:06:44.927Z,96531.00
2022-09-02T01:10:50.719Z,96533.00
2022-09-02T01:14:53.920Z,96535.00
2022-09-02T01:19:30.025Z,96527.00
2022-09-02T01:23:35.986Z,96526.00
2022-09-02T01:27:39.598Z,96522.00
2022-09-02T01:32:16.373Z,96527.00
2022-09-02T01:36:19.519Z,96525.00
2022-09-02T01:40:58.258Z,96519.00
2022-09-02T01:45:01.599Z,96522.00
2022-09-02T01:49:06.554Z,96517.00
2022-09-02T01:53:41.594Z,96514.00
2022-09-02T01:57:46.163Z,96511.00
2022-09-02T02:02:20.300Z,96512.00
2022-09-02T02:06:23.502Z,96513.00
2022-09-02T02:11:01.243Z,96516.00
2022-09-02T02:15:06.786Z,96506.00
2022-09-02T02:19:40.537Z,96508.00
2022-09-02T02:23:43.661Z,96504.00
2022-09-02T02:27:47.035Z,96499.00
2022-09-02T02:31:52.034Z,96494.00
2022-09-02T02:35:59.337Z,96495.00
2022-09-02T02:40:02.509Z,96476.00
2022-09-02T02:44:05.832Z,96492.00
2022-09-02T02:48:44.404Z,96491.00
2022-09-02T02:52:48.907Z,96488.00
2022-09-02T02:57:22.753Z,96490.00
2022-09-02T03:01:59.706Z,96480.00
2022-09-02T03:06:36.953Z,96485.00
2022-09-02T03:10:44.304Z,96478.00
2022-09-02T03:15:15.917Z,96483.00
2022-09-02T03:19:18.975Z,96484.00
2022-09-02T03:23:53.061Z,96484.00
2022-09-02T03:28:33.225Z,96475.00
2022-09-02T03:33:07.429Z,96478.00
2022-09-02T03:37:44.462Z,96471.00
2022-09-02T03:42:21.408Z,96476.00
2022-09-02T03:46:27.397Z,96466.00
2022-09-02T03:50:34.945Z,96473.00
2022-09-02T03:55:06.166Z,96466.00
2022-09-02T03:59:43.560Z,96464.00
2022-09-02T04:04:23.073Z,96461.00
2022-09-02T04:08:56.841Z,96458.00
2022-09-02T04:13:33.406Z,96458.00
2022-09-02T04:17:37.768Z,96457.00
2022-09-02T04:22:13.593Z,96463.00
2022-09-02T04:26:47.634Z,96462.00
2022-09-02T04:31:25.755Z,96466.00
2022-09-02T04:35:31.501Z,96460.00
2022-09-02T04:40:07.236Z,96467.00
2022-09-02T04:44:41.959Z,96469.00
2022-09-02T04:49:18.828Z,96461.00
2022-09-02T04:53:22.101Z,96455.00
2022-09-02T04:58:00.185Z,96459.00
2022-09-02T05:02:34.356Z,96463.00
2022-09-02T05:07:12.048Z,96469.00
2022-09-02T05:11:48.900Z,96470.00
2022-09-02T05:16:25.935Z,96475.00
2022-09-02T05:20:59.744Z,96478.00
2022-09-02T05:25:37.635Z,96473.00
2022-09-02T05:30:12.034Z,96480.00
2022-09-02T05:34:48.074Z,96470.00
2022-09-02T05:39:22.114Z,96474.00
2022-09-02T05:43:25.221Z,96480.00
2022-09-02T05:48:22.624Z,96486.00
2022-09-02T05:53:20.515Z,96479.00
2022-09-02T05:57:57.073Z,96483.00
2022-09-02T06:02:06.502Z,96475.00
2022-09-02T06:06:41.075Z,96483.00
2022-09-02T06:11:39.031Z,96480.00
2022-09-02T06:16:17.530Z,96472.00
2022-09-02T06:20:52.963Z,96483.00
2022-09-02T06:25:29.678Z,96475.00
2022-09-02T06:30:09.055Z,96477.00
2022-09-02T06:34:43.362Z,96475.00
2022-09-02T06:39:21.234Z,96474.00
2022-09-02T06:43:56.770Z,96473.00
2022-09-02T06:48:30.270Z,96470.00
2022-09-02T06:53:09.350Z,96470.00
2022-09-02T06:57:43.674Z,96472.00
2022-09-02T07:02:20.650Z,96484.00
2022-09-02T07:06:59.117Z,96491.00
2022-09-02T07:11:37.903Z,96490.00
2022-09-02T07:16:11.685Z,96492.00
2022-09-02T07:20:48.317Z,96483.00
2022-09-02T07:25:25.291Z,96494.00
2022-09-02T07:30:05.074Z,96485.00
2022-09-02T07:34:41.862Z,96485.00
2022-09-02T07:38:45.070Z,96479.00
2022-09-02T07:42:48.295Z,96477.00
2022-09-02T07:47:26.670Z,96487.00
2022-09-02T07:52:00.289Z,96483.00
2022-09-02T07:56:37.772Z,96488.00
2022-09-02T08:01:16.370Z,96480.00
2022-09-02T08:05:53.797Z,96484.00
2022-09-02T08:15:12.997Z,96488.00
2022-09-02T08:19:39.881Z,96484.00
2022-09-02T08:24:18.570Z,96490.00
2022-09-02T08:28:52.242Z,96487.00
2022-09-02T08:33:28.913Z,96487.00
2022-09-02T08:38:06.050Z,96484.00
2022-09-02T08:42:47.250Z,96485.00
2022-09-02T08:47:26.364Z,96480.00
2022-09-02T08:52:02.381Z,96484.00
2022-09-02T08:56:35.812Z,96480.00
2022-09-02T09:01:17.101Z,96488.00
2022-09-02T09:05:52.352Z,96477.00
2022-09-02T09:10:22.958Z,96468.00
2022-09-02T09:15:04.889Z,96469.00
2022-09-02T09:19:40.461Z,96474.00
2022-09-02T09:24:11.115Z,96471.00
2022-09-02T09:28:49.056Z,96456.00
2022-09-02T09:33:23.613Z,96463.00
2022-09-02T09:38:00.544Z,96453.00
2022-09-02T09:42:39.323Z,96456.00
2022-09-02T09:46:44.374Z,96452.00
2022-09-02T09:51:21.456Z,96447.00
2022-09-02T09:55:57.977Z,96437.00
2022-09-02T10:00:36.327Z,96447.00
2022-09-02T10:05:18.620Z,96437.00
2022-09-02T10:09:49.456Z,96439.00
2022-09-02T10:14:32.685Z,96441.00
2022-09-02T10:19:11.792Z,96433.00
2022-09-02T10:23:46.016Z,96429.00
2022-09-02T10:28:22.831Z,96418.00
2022-09-02T10:33:06.825Z,96415.00
2022-09-02T10:37:18.848Z,96422.00
2022-09-02T10:45:59.278Z,96421.00
2022-09-02T10:50:38.795Z,96414.00
2022-09-02T10:55:15.714Z,96411.00
2022-09-02T10:59:45.970Z,96409.00
2022-09-02T11:04:26.220Z,96400.00
2022-09-02T11:08:59.673Z,96406.00
2022-09-02T11:18:27.499Z,96398.00
2022-09-02T11:22:57.493Z,96390.00
2022-09-02T11:27:42.829Z,96387.00
2022-09-02T11:32:11.931Z,96388.00
2022-09-02T11:36:45.669Z,96376.00
2022-09-02T11:41:37.874Z,96380.00
2022-09-02T11:46:04.077Z,96374.00
2022-09-02T11:50:35.792Z,96375.00
2022-09-02T11:54:56.671Z,96364.00
2022-09-02T11:59:45.300Z,96361.00
2022-09-02T12:04:34.512Z,96359.00
2022-09-02T12:09:01.088Z,96367.00
2022-09-02T12:13:18.451Z,96360.00
2022-09-02T12:18:10.119Z,96361.00
2022-09-02T12:22:40.249Z,96349.00
2022-09-02T12:27:12.441Z,96357.00
2022-09-02T12:31:42.074Z,96341.00
2022-09-02T12:35:57.716Z,96347.00
2022-09-02T12:40:11.338Z,96347.00
2022-09-02T12:44:25.425Z,96334.00
2022-09-02T12:49:00.224Z,96333.00
2022-09-02T12:53:34.766Z,96332.00
2022-09-02T12:57:44.845Z,96334.00
2022-09-02T13:06:35.862Z,96329.00
2022-09-02T13:11:21.207Z,96322.00
2022-09-02T13:15:55.281Z,96311.00
2022-09-02T13:20:51.269Z,96315.00
2022-09-02T13:25:29.331Z,96307.00
2022-09-02T13:30:04.768Z,96309.00
2022-09-02T13:34:14.768Z,96304.00
2022-09-02T13:38:25.513Z,96301.00
2022-09-02T13:42:32.780Z,96296.00
2022-09-02T13:46:45.302Z,96300.00
2022-09-02T13:50:51.909Z,96300.00
2022-09-02T13:55:00.091Z,96304.00
2022-09-02T13:59:03.193Z,96300.00
2022-09-02T14:03:40.506Z,96292.00
2022-09-02T14:08:17.593Z,96292.00
2022-09-02T14:12:23.054Z,96288.00
2022-09-02T14:17:12.246Z,96291.00
2022-09-02T14:21:34.398Z,96287.00
2022-09-02T14:26:08.532Z,96277.00
2022-09-02T14:30:58.104Z,96273.00
2022-09-02T14:35:23.343Z,96260.00
2022-09-02T14:39:26.696Z,96263.00
2022-09-02T14:44:11.361Z,96253.00
2022-09-02T14:48:40.852Z,96256.00
2022-09-02T14:53:21.220Z,96256.00
2022-09-02T14:58:02.326Z,96253.00
2022-09-02T15:02:31.010Z,96246.00
2022-09-02T15:07:04.557Z,96248.00
2022-09-02T15:11:39.744Z,96248.00
2022-09-02T15:15:43.197Z,96238.00
2022-09-02T15:19:57.890Z,96235.00
2022-09-02T15:24:33.715Z,96232.00
2022-09-02T15:29:08.165Z,96229.00
2022-09-02T15:33:16.507Z,96219.00
2022-09-02T15:37:51.000Z,96233.00
2022-09-02T15:41:56.638Z,96229.00
2022-09-02T15:46:31.681Z,96229.00
2022-09-02T15:50:34.903Z,96227.00
2022-09-02T15:55:12.267Z,96217.00
2022-09-02T15:59:20.413Z,96210.00
2022-09-02T16:03:23.831Z,96213.00
2022-09-02T16:07:27.300Z,96214.00
2022-09-02T16:11:31.045Z,96213.00
2022-09-02T16:16:10.970Z,96219.00
2022-09-02T16:20:16.094Z,96219.00
2022-09-02T16:24:51.060Z,96207.00
2022-09-02T16:28:57.724Z,96205.00
2022-09-02T16:33:02.342Z,96197.00
2022-09-02T16:37:05.907Z,96203.00
2022-09-02T16:41:22.820Z,96200.00
2022-09-02T16:45:45.570Z,96193.00
2022-09-02T16:49:50.305Z,96193.00
2022-09-02T16:54:31.323Z,96179.00
2022-09-02T16:58:36.645Z,96178.00
2022-09-02T17:03:11.616Z,96176.00
2022-09-02T17:07:16.359Z,96179.00
2022-09-02T17:11:22.328Z,96181.00
2022-09-02T17:15:59.655Z,96188.00
2022-09-02T17:20:03.016Z,96183.00
2022-09-02T17:24:10.440Z,96190.00
2022-09-02T17:28:13.842Z,96199.00
2022-09-02T17:32:17.154Z,96198.00
2022-09-02T17:36:50.980Z,96201.00
2022-09-02T17:41:12.823Z,96196.00
2022-09-02T17:45:54.954Z,96201.00
2022-09-02T17:49:59.239Z,96195.00
2022-09-02T17:54:02.772Z,96194.00
2022-09-02T17:58:46.455Z,96204.00
2022-09-02T18:03:25.970Z,96202.00
2022-09-02T18:07:34.955Z,96185.00
2022-09-02T18:12:07.436Z,96193.00
2022-09-02T18:17:07.315Z,96207.00
2022-09-02T18:21:30.914Z,96212.00
2022-09-02T18:25:47.889Z,96228.00
2022-09-02T18:30:13.557Z,96220.00
2022-09-02T18:34:48.770Z,96231.00
2022-09-02T18:39:29.100Z,96230.00
2022-09-02T18:43:55.350Z,96238.00
2022-09-02T18:48:25.969Z,96242.00
2022-09-02T18:53:03.474Z,96244.00
2022-09-02T18:57:45.873Z,96242.00
2022-09-02T19:02:17.183Z,96238.00
2022-09-02T19:06:48.746Z,96237.00
2022-09-02T19:11:27.837Z,96237.00
2022-09-02T19:20:48.033Z,96249.00
2022-09-02T19:25:24.466Z,96247.00
2022-09-02T19:30:15.850Z,96232.00
2022-09-02T19:34:45.661Z,96222.00
2022-09-02T19:39:21.385Z,96238.00
2022-09-02T19:43:55.588Z,96228.00
2022-09-02T19:48:32.669Z,96231.00
2022-09-02T19:53:10.793Z,96223.00
2022-09-02T19:57:44.786Z,96239.00
2022-09-02T20:02:23.595Z,96246.00
2022-09-02T20:06:58.901Z,96256.00
2022-09-02T20:11:32.748Z,96252.00
2022-09-02T20:16:30.735Z,96244.00
2022-09-02T20:21:09.287Z,96263.00
2022-09-02T20:25:48.769Z,96248.00
2022-09-02T20:30:19.514Z,96249.00
2022-09-02T20:34:35.677Z,96244.00
2022-09-02T20:39:07.630Z,96252.00
2022-09-02T20:43:37.667Z,96241.00
2022-09-02T20:48:17.515Z,96237.00
2022-09-02T20:52:52.762Z,96246.00
2022-09-02T20:57:27.654Z,96249.00
2022-09-02T21:01:34.606Z,96247.00
2022-09-02T21:05:42.623Z,96248.00
2022-09-02T21:09:51.317Z,96242.00
2022-09-02T21:14:03.682Z,96238.00
2022-09-02T21:18:16.004Z,96242.00
2022-09-02T21:22:46.219Z,96231.00
2022-09-02T21:26:56.675Z,96227.00
2022-09-02T21:31:07.134Z,96220.00
2022-09-02T21:35:40.062Z,96237.00
2022-09-02T21:39:49.938Z,96240.00
2022-09-02T21:44:00.440Z,96241.00
2022-09-02T21:48:34.041Z,96241.00
2022-09-02T21:52:54.133Z,96235.00
2022-09-02T21:57:26.187Z,96228.00
2022-09-02T22:01:44.319Z,96230.00
2022-09-02T22:06:12.484Z,96227.00
2022-09-02T22:10:26.359Z,96234.00
2022-09-02T22:14:38.266Z,96234.00
2022-09-02T22:18:45.318Z,96242.00
2022-09-02T22:22:54.522Z,96223.00
2022-09-02T22:27:04.929Z,96230.00
2022-09-02T22:31:16.240Z,96227.00
2022-09-02T22:35:27.895Z,96229.00
2022-09-02T22:39:38.820Z,96232.00
2022-09-02T22:44:08.687Z,96221.00
2022-09-02T22:48:35.072Z,96222.00
2022-09-02T22:52:50.264Z,96217.00
2022-09-02T22:57:05.161Z,96209.00
2022-09-02T23:01:16.622Z,96201.00
2022-09-02T23:05:50.637Z,96210.00
2022-09-02T23:09:59.125Z,96210.00
2022-09-02T23:14:12.436Z,96211.00
2022-09-02T23:18:24.506Z,96208.00
2022-09-02T23:22:38.034Z,96202.00
2022-09-02T23:26:50.009Z,96193.00
2022-09-02T23:31:03.041Z,96201.00
2022-09-02T23:35:33.282Z,96185.00
2022-09-02T23:39:49.280Z,96189.00
2022-09-02T23:43:53.002Z,96197.00
2022-09-02T23:48:35.246Z,96193.00
2022-09-02T23:52:53.009Z,96193.00
2022-09-02T23:57:14.249Z,96183.00
